createdAt,value
2022-11-29T00:02:08.834Z,10.95
2022-11-29T00:04:36.310Z,11.11
2022-11-29T00:07:04.101Z,10.76
2022-11-29T00:09:30.898Z,11.21
2022-11-29T00:12:00.131Z,11.78
2022-11-29T00:14:33.880Z,12.16
2022-11-29T00:17:00.850Z,11.73
2022-11-29T00:19:28.162Z,11.83
2022-11-29T00:21:54.862Z,11.45
2022-11-29T00:24:21.392Z,11.11
2022-11-29T00:26:49.996Z,11.31
2022-11-29T00:31:49.090Z,11.55
2022-11-29T00:34:16.058Z,11.49
2022-11-29T00:36:46.594Z,10.73
2022-11-29T00:39:17.651Z,10.71
2022-11-29T00:41:45.541Z,10.99
2022-11-29T00:44:18.359Z,10.61
2022-11-29T00:46:49.578Z,11.15
2022-11-29T00:49:16.781Z,11.25
2022-11-29T00:51:43.445Z,11.14
2022-11-29T00:54:17.605Z,11.08
2022-11-29T00:56:44.069Z,11.76
2022-11-29T00:59:14.538Z,11.13
2022-11-29T01:01:43.243Z,10.51
2022-11-29T01:04:10.300Z,10.57
2022-11-29T01:06:38.267Z,10.75
2022-11-29T01:09:05.052Z,10.48
2022-11-29T01:11:33.454Z,11.48
2022-11-29T01:17:11.969Z,11.65
2022-11-29T01:19:39.024Z,11.29
2022-11-29T01:22:06.161Z,11.17
2022-11-29T01:24:33.750Z,11.52
2022-11-29T01:27:00.718Z,11.48
2022-11-29T01:29:28.982Z,11.37
2022-11-29T01:31:56.511Z,11.58
2022-11-29T01:34:24.532Z,11.08
2022-11-29T01:36:51.843Z,11.75
2022-11-29T01:39:19.192Z,11.96
2022-11-29T01:41:48.210Z,12.01
2022-11-29T01:44:16.029Z,11.85
2022-11-29T01:46:43.481Z,12.03
2022-11-29T01:49:10.277Z,12.14
2022-11-29T01:51:37.954Z,11.74
2022-11-29T01:54:05.391Z,12.17
2022-11-29T01:56:32.644Z,12.22
2022-11-29T01:59:02.516Z,11.86
2022-11-29T02:01:33.372Z,12.05
2022-11-29T02:04:00.630Z,12.12
2022-11-29T02:06:27.608Z,12.00
2022-11-29T02:08:54.412Z,11.32
2022-11-29T02:11:21.950Z,11.35
2022-11-29T02:13:52.178Z,11.84
2022-11-29T02:16:20.234Z,11.96
2022-11-29T02:18:46.984Z,11.04
2022-11-29T02:21:13.858Z,11.74
2022-11-29T02:23:40.676Z,11.65
2022-11-29T02:26:07.874Z,10.27
2022-11-29T02:28:36.328Z,11.07
2022-11-29T02:31:05.071Z,10.40
2022-11-29T02:33:31.800Z,11.14
2022-11-29T02:35:58.526Z,11.26
2022-11-29T02:38:25.415Z,11.44
2022-11-29T02:40:55.701Z,11.15
2022-11-29T02:43:24.180Z,11.13
2022-11-29T02:45:53.045Z,10.57
2022-11-29T02:48:19.976Z,10.08
2022-11-29T02:50:49.090Z,10.04
2022-11-29T02:53:16.520Z,10.13
2022-11-29T02:55:43.202Z,10.32
2022-11-29T02:58:10.702Z,10.29
2022-11-29T03:00:37.531Z,10.62
2022-11-29T03:03:07.262Z,10.40
2022-11-29T03:05:35.755Z,9.99
2022-11-29T03:08:04.193Z,10.22
2022-11-29T03:10:33.262Z,10.04
2022-11-29T03:13:00.231Z,10.15
2022-11-29T03:15:28.265Z,10.18
2022-11-29T03:17:56.806Z,10.29
2022-11-29T03:20:27.616Z,10.34
2022-11-29T03:22:56.073Z,10.55
2022-11-29T03:25:24.554Z,11.30
2022-11-29T03:27:51.463Z,11.56
2022-11-29T03:30:18.532Z,11.17
2022-11-29T03:32:47.001Z,11.73
2022-11-29T03:35:13.969Z,12.01
2022-11-29T03:37:41.499Z,11.87
2022-11-29T03:40:08.577Z,12.02
2022-11-29T03:42:36.719Z,12.17
2022-11-29T03:48:25.842Z,11.94
2022-11-29T03:50:58.526Z,11.27
2022-11-29T03:53:25.943Z,11.73
2022-11-29T03:55:52.603Z,12.06
2022-11-29T03:58:19.380Z,12.04
2022-11-29T04:00:54.061Z,12.30
2022-11-29T04:03:22.253Z,11.68
2022-11-29T04:05:56.891Z,12.18
2022-11-29T04:08:24.559Z,11.92
2022-11-29T04:10:52.021Z,12.24
2022-11-29T04:13:40.230Z,12.17
2022-11-29T04:16:26.973Z,12.16
2022-11-29T04:18:53.826Z,12.13
2022-11-29T04:21:20.748Z,11.68
2022-11-29T04:23:51.711Z,11.87
2022-11-29T04:26:20.150Z,11.31
2022-11-29T04:28:47.233Z,11.44
2022-11-29T04:31:14.909Z,10.68
2022-11-29T04:33:41.797Z,11.12
2022-11-29T04:36:10.635Z,11.60
2022-11-29T04:38:38.135Z,11.30
2022-11-29T04:41:06.886Z,11.21
2022-11-29T04:43:37.894Z,11.48
2022-11-29T04:46:04.451Z,11.00
2022-11-29T04:48:33.222Z,10.83
2022-11-29T04:51:00.153Z,10.77
2022-11-29T04:53:27.236Z,10.84
2022-11-29T04:55:54.230Z,10.54
2022-11-29T04:58:23.855Z,10.98
2022-11-29T05:00:51.216Z,10.24
2022-11-29T05:03:20.394Z,10.92
2022-11-29T05:05:48.934Z,10.27
2022-11-29T05:08:17.975Z,10.40
2022-11-29T05:10:46.565Z,10.56
2022-11-29T05:13:13.260Z,10.73
2022-11-29T05:15:42.228Z,10.45
2022-11-29T05:18:09.667Z,10.90
2022-11-29T05:20:41.296Z,10.79
2022-11-29T05:23:12.131Z,10.60
2022-11-29T05:28:22.525Z,10.71
2022-11-29T05:30:52.588Z,11.37
2022-11-29T05:33:20.804Z,11.20
2022-11-29T05:35:49.493Z,11.08
2022-11-29T05:38:16.588Z,11.19
2022-11-29T05:40:43.894Z,10.83
2022-11-29T05:43:12.558Z,11.26
2022-11-29T05:45:39.541Z,11.55
2022-11-29T05:48:06.518Z,11.59
2022-11-29T05:50:43.267Z,10.90
2022-11-29T05:53:17.255Z,10.84
2022-11-29T05:55:44.211Z,10.80
2022-11-29T05:58:11.172Z,11.32
2022-11-29T06:00:41.192Z,11.26
2022-11-29T06:03:08.949Z,10.88
2022-11-29T06:05:36.271Z,11.62
2022-11-29T06:08:12.960Z,11.87
2022-11-29T06:10:46.215Z,11.61
2022-11-29T06:13:13.335Z,10.82
2022-11-29T06:18:37.222Z,11.80
2022-11-29T06:21:06.922Z,11.66
2022-11-29T06:23:50.459Z,10.91
2022-11-29T06:26:32.574Z,11.13
2022-11-29T06:31:43.702Z,11.17
2022-11-29T06:34:13.764Z,11.18
2022-11-29T06:36:45.687Z,10.61
2022-11-29T06:39:16.597Z,10.83
2022-11-29T06:44:32.165Z,10.77
2022-11-29T06:47:00.283Z,11.07
2022-11-29T06:49:27.758Z,11.28
2022-11-29T06:51:59.019Z,11.66
2022-11-29T06:54:25.751Z,11.52
2022-11-29T06:57:03.881Z,10.60
2022-11-29T07:04:57.327Z,10.62
2022-11-29T07:12:59.909Z,10.02
2022-11-29T07:15:28.974Z,9.90
2022-11-29T07:20:58.804Z,10.59
2022-11-29T07:26:06.606Z,9.45
2022-11-29T07:28:45.434Z,9.72
2022-11-29T07:31:17.515Z,9.79
2022-11-29T07:34:13.887Z,10.19
2022-11-29T07:36:48.417Z,10.23
2022-11-29T07:39:19.564Z,10.24
2022-11-29T07:41:48.893Z,10.44
2022-11-29T07:44:21.253Z,10.44
2022-11-29T07:46:48.721Z,10.15
2022-11-29T07:49:29.232Z,10.89
2022-11-29T07:52:02.645Z,10.90
2022-11-29T07:54:30.055Z,11.06
2022-11-29T07:56:58.930Z,11.54
2022-11-29T07:59:28.036Z,11.77
2022-11-29T08:01:59.487Z,11.77
2022-11-29T08:04:28.054Z,11.73
2022-11-29T08:07:06.605Z,12.14
2022-11-29T08:09:37.528Z,12.22
2022-11-29T08:12:12.330Z,12.25
2022-11-29T08:17:57.557Z,12.32
2022-11-29T08:20:31.467Z,12.39
2022-11-29T08:22:59.982Z,12.40
2022-11-29T08:25:27.086Z,12.21
2022-11-29T08:27:54.839Z,12.61
2022-11-29T08:30:23.884Z,12.69
2022-11-29T08:32:57.640Z,12.48
2022-11-29T08:35:26.540Z,12.55
2022-11-29T08:37:53.604Z,12.61
2022-11-29T08:40:21.722Z,12.63
2022-11-29T08:42:49.377Z,12.29
2022-11-29T08:48:08.734Z,11.99
2022-11-29T08:50:39.236Z,12.22
2022-11-29T08:53:09.685Z,12.49
2022-11-29T08:55:37.610Z,12.43
2022-11-29T08:58:05.295Z,12.71
2022-11-29T09:00:32.133Z,12.84
2022-11-29T09:05:43.539Z,12.72
2022-11-29T09:08:24.937Z,11.85
2022-11-29T09:10:57.540Z,11.65
2022-11-29T09:13:39.890Z,11.27
2022-11-29T09:16:11.497Z,11.80
2022-11-29T09:18:51.268Z,12.23
2022-11-29T09:24:32.835Z,11.66
2022-11-29T09:27:21.423Z,12.08
2022-11-29T09:29:55.948Z,12.34
2022-11-29T09:32:25.013Z,12.70
2022-11-29T09:34:54.558Z,13.01
2022-11-29T09:37:32.861Z,13.15
2022-11-29T09:46:01.875Z,12.00
2022-11-29T09:48:32.831Z,12.51
2022-11-29T09:51:00.207Z,12.02
2022-11-29T09:53:30.127Z,12.12
2022-11-29T09:55:57.108Z,12.05
2022-11-29T09:58:24.355Z,11.05
2022-11-29T10:01:14.603Z,10.72
2022-11-29T10:03:39.766Z,11.52
2022-11-29T10:06:14.224Z,12.24
2022-11-29T10:08:50.338Z,12.14
2022-11-29T10:11:20.446Z,11.71
2022-11-29T10:19:49.722Z,11.41
2022-11-29T10:22:20.426Z,12.16
2022-11-29T10:24:51.028Z,11.63
2022-11-29T10:27:18.613Z,12.23
2022-11-29T10:29:49.978Z,11.61
2022-11-29T10:32:20.578Z,12.33
2022-11-29T10:34:47.625Z,11.77
2022-11-29T10:37:16.208Z,11.82
2022-11-29T10:39:43.871Z,12.25
2022-11-29T10:42:12.602Z,11.32
2022-11-29T10:44:41.371Z,10.12
2022-11-29T10:47:11.099Z,11.55
2022-11-29T10:50:01.525Z,12.47
2022-11-29T10:52:33.800Z,13.11
2022-11-29T10:55:03.658Z,13.07
2022-11-29T11:00:11.579Z,12.39
2022-11-29T11:02:40.610Z,12.04
2022-11-29T11:05:16.778Z,11.35
2022-11-29T11:07:46.344Z,12.41
2022-11-29T11:10:18.031Z,13.07
2022-11-29T11:12:48.492Z,11.88
2022-11-29T11:15:21.333Z,11.54
2022-11-29T11:17:49.489Z,10.97
2022-11-29T11:20:17.770Z,11.45
2022-11-29T11:22:47.556Z,10.95
2022-11-29T11:25:24.212Z,10.80
2022-11-29T11:30:57.769Z,11.50
2022-11-29T11:33:39.621Z,12.49
2022-11-29T11:44:45.786Z,11.99
2022-11-29T11:47:07.372Z,9.98
2022-11-29T11:49:38.237Z,10.12
2022-11-29T11:54:55.411Z,10.66
2022-11-29T11:57:26.402Z,11.39
2022-11-29T11:59:56.202Z,11.98
2022-11-29T12:02:31.110Z,11.52
2022-11-29T12:05:19.328Z,10.71
2022-11-29T12:10:39.211Z,10.38
2022-11-29T12:13:10.027Z,9.48
2022-11-29T12:15:48.344Z,10.24
2022-11-29T12:18:16.366Z,10.21
2022-11-29T12:20:45.782Z,9.94
2022-11-29T12:23:14.734Z,9.54
2022-11-29T12:25:42.897Z,9.71
2022-11-29T12:28:19.819Z,10.58
2022-11-29T12:30:50.723Z,10.73
2022-11-29T12:33:21.764Z,10.39
2022-11-29T12:35:50.761Z,9.35
2022-11-29T12:38:18.708Z,8.98
2022-11-29T12:40:45.759Z,9.80
2022-11-29T12:48:38.673Z,10.79
2022-11-29T12:57:02.571Z,10.60
2022-11-29T13:02:34.387Z,11.10
2022-11-29T13:08:12.782Z,11.03
2022-11-29T13:13:21.087Z,10.93
2022-11-29T13:15:49.876Z,11.68
2022-11-29T13:21:07.149Z,12.73
2022-11-29T13:29:07.092Z,12.06
2022-11-29T13:31:39.781Z,12.19
2022-11-29T13:34:15.328Z,12.02
2022-11-29T13:39:27.759Z,12.53
2022-11-29T13:50:14.652Z,12.07
2022-11-29T13:52:45.964Z,12.64
2022-11-29T13:58:35.330Z,12.59
2022-11-29T14:01:06.676Z,12.33
2022-11-29T14:03:43.454Z,12.18
2022-11-29T14:06:11.753Z,11.83
2022-11-29T14:14:17.422Z,11.36
2022-11-29T14:16:49.311Z,11.44
2022-11-29T14:19:26.664Z,11.48
2022-11-29T14:22:03.260Z,10.85
2022-11-29T14:24:46.792Z,11.14
2022-11-29T14:27:15.349Z,11.63
2022-11-29T14:29:53.787Z,11.14
2022-11-29T14:32:33.608Z,11.98
2022-11-29T15:06:07.461Z,10.64
2022-11-29T15:17:33.418Z,11.05
2022-11-29T15:23:19.368Z,11.65
2022-11-29T15:27:12.662Z,11.37
2022-11-29T15:38:46.578Z,10.19
2022-11-29T15:43:06.202Z,10.29
2022-11-29T15:44:25.534Z,10.59
2022-11-29T15:47:45.559Z,10.31
2022-11-29T15:49:49.127Z,10.70
2022-11-29T15:52:20.333Z,10.06
2022-11-29T15:54:47.555Z,10.74
2022-11-29T15:57:16.293Z,9.83
2022-11-29T15:59:47.683Z,10.40
2022-11-29T16:04:59.023Z,9.69
2022-11-29T16:07:30.439Z,9.67
2022-11-29T16:09:58.328Z,10.12
2022-11-29T16:12:25.879Z,9.92
2022-11-29T16:37:29.446Z,10.41
2022-11-29T16:40:02.092Z,10.16
2022-11-29T16:42:34.780Z,11.00
2022-11-29T16:47:48.320Z,11.65
2022-11-29T16:53:12.860Z,9.13
2022-11-29T16:55:47.585Z,9.21
2022-11-29T16:58:15.536Z,8.93
2022-11-29T17:00:46.261Z,9.21
2022-11-29T17:03:18.198Z,8.58
2022-11-29T17:05:45.874Z,7.98
2022-11-29T17:08:21.723Z,7.69
2022-11-29T17:10:51.768Z,7.52
2022-11-29T17:13:21.497Z,7.50
2022-11-29T17:15:50.490Z,7.58
2022-11-29T17:18:17.683Z,7.63
2022-11-29T17:23:30.462Z,7.43
2022-11-29T17:25:59.456Z,7.38
2022-11-29T17:28:35.627Z,7.26
2022-11-29T17:34:13.841Z,7.30
2022-11-29T17:42:19.700Z,7.07
2022-11-29T17:47:39.491Z,7.13
2022-11-29T17:50:13.758Z,7.05
2022-11-29T17:55:32.524Z,7.20
2022-11-29T17:58:06.099Z,7.18
2022-11-29T18:00:32.960Z,7.07
2022-11-29T18:03:04.422Z,7.01
2022-11-29T18:05:34.717Z,7.13
2022-11-29T18:08:10.523Z,7.03
2022-11-29T18:10:37.757Z,7.03
2022-11-29T18:13:06.328Z,7.00
2022-11-29T18:15:36.924Z,7.07
2022-11-29T18:18:04.112Z,7.02
2022-11-29T18:20:33.383Z,7.01
2022-11-29T18:23:05.030Z,7.13
2022-11-29T18:25:40.114Z,7.26
2022-11-29T18:28:07.749Z,7.23
2022-11-29T18:30:36.544Z,7.17
2022-11-29T18:33:06.599Z,7.26
2022-11-29T18:38:16.281Z,7.29
2022-11-29T18:40:45.148Z,7.34
2022-11-29T18:43:12.077Z,7.44
2022-11-29T18:51:32.568Z,7.63
2022-11-29T18:56:43.673Z,7.37
2022-11-29T18:59:12.091Z,7.32
2022-11-29T19:01:52.320Z,7.29
2022-11-29T19:04:20.196Z,7.15
2022-11-29T19:06:47.600Z,7.13
2022-11-29T19:09:20.491Z,7.07
2022-11-29T19:11:58.363Z,6.96
2022-11-29T19:14:26.711Z,6.88
2022-11-29T19:16:59.479Z,6.87
2022-11-29T19:19:38.591Z,6.84
2022-11-29T19:22:05.476Z,6.91
2022-11-29T19:30:15.357Z,6.91
2022-11-29T19:35:32.666Z,7.12
2022-11-29T19:38:05.610Z,7.10
2022-11-29T19:40:32.732Z,7.13
2022-11-29T19:43:03.915Z,7.29
2022-11-29T19:45:32.341Z,7.29
2022-11-29T19:48:02.787Z,7.18
2022-11-29T19:50:33.252Z,7.46
2022-11-29T19:53:04.655Z,7.14
2022-11-29T19:55:32.150Z,7.21
2022-11-29T19:58:09.942Z,7.32
2022-11-29T20:00:39.826Z,7.37
2022-11-29T20:03:14.584Z,7.37
2022-11-29T20:08:39.015Z,7.31
2022-11-29T20:11:10.041Z,7.49
2022-11-29T20:16:20.381Z,7.91
2022-11-29T20:18:50.728Z,7.83
2022-11-29T20:21:18.747Z,8.11
2022-11-29T20:23:48.692Z,7.67
2022-11-29T20:26:25.821Z,8.00
2022-11-29T20:28:55.803Z,7.72
2022-11-29T20:31:33.291Z,7.57
2022-11-29T20:34:01.957Z,7.83
2022-11-29T20:36:29.686Z,7.72
2022-11-29T20:39:09.791Z,7.68
2022-11-29T20:41:38.523Z,7.81
2022-11-29T20:44:07.450Z,7.93
2022-11-29T20:46:35.822Z,7.67
2022-11-29T20:49:06.987Z,7.60
2022-11-29T20:51:38.073Z,7.48
2022-11-29T20:54:10.036Z,7.73
2022-11-29T20:59:23.473Z,7.51
2022-11-29T21:01:59.014Z,7.83
2022-11-29T21:04:27.371Z,8.53
2022-11-29T21:07:00.910Z,8.50
2022-11-29T21:09:28.617Z,8.29
2022-11-29T21:11:56.188Z,8.09
2022-11-29T21:14:24.986Z,8.00
2022-11-29T21:16:56.104Z,7.78
2022-11-29T21:19:27.108Z,7.35
2022-11-29T21:21:54.559Z,7.64
2022-11-29T21:24:21.900Z,7.54
2022-11-29T21:26:49.328Z,8.37
2022-11-29T21:29:16.375Z,7.90
2022-11-29T21:31:43.982Z,8.11
2022-11-29T21:34:10.966Z,7.77
2022-11-29T21:36:38.432Z,7.87
2022-11-29T21:39:09.022Z,7.82
2022-11-29T21:41:36.149Z,8.26
2022-11-29T21:44:07.829Z,7.84
2022-11-29T21:46:35.879Z,8.50
2022-11-29T21:49:03.797Z,8.19
2022-11-29T21:51:30.918Z,8.15
2022-11-29T21:54:02.922Z,8.36
2022-11-29T21:56:34.771Z,9.02
2022-11-29T21:59:12.685Z,8.56
2022-11-29T22:01:40.097Z,9.44
2022-11-29T22:04:07.616Z,8.98
2022-11-29T22:06:34.618Z,9.47
2022-11-29T22:09:02.281Z,9.85
2022-11-29T22:11:34.673Z,10.39
2022-11-29T22:14:03.562Z,10.25
2022-11-29T22:16:31.154Z,10.65
2022-11-29T22:19:01.261Z,10.64
2022-11-29T22:21:28.041Z,10.88
2022-11-29T22:23:56.162Z,10.11
2022-11-29T22:26:22.908Z,9.74
2022-11-29T22:28:49.827Z,9.89
2022-11-29T22:31:20.206Z,10.02
2022-11-29T22:36:39.521Z,10.81
2022-11-29T22:39:06.623Z,10.74
2022-11-29T22:41:34.956Z,10.87
2022-11-29T22:44:03.213Z,10.94
2022-11-29T22:46:41.526Z,10.99
2022-11-29T22:49:08.623Z,11.01
2022-11-29T22:51:35.784Z,10.70
2022-11-29T22:54:02.768Z,10.17
2022-11-29T22:56:31.338Z,10.29
2022-11-29T22:59:07.881Z,10.55
2022-11-29T23:01:36.638Z,10.10
2022-11-29T23:04:07.769Z,9.96
2022-11-29T23:06:35.374Z,8.97
2022-11-29T23:09:04.062Z,9.38
2022-11-29T23:11:30.565Z,9.84
2022-11-29T23:14:01.052Z,9.33
2022-11-29T23:16:27.942Z,8.60
2022-11-29T23:18:55.569Z,8.57
2022-11-29T23:21:22.321Z,8.28
2022-11-29T23:23:54.538Z,8.25
2022-11-29T23:26:24.916Z,7.50
2022-11-29T23:28:52.439Z,7.60
2022-11-29T23:31:19.554Z,7.65
2022-11-29T23:33:47.109Z,7.67
2022-11-29T23:36:15.013Z,7.65
2022-11-29T23:38:42.514Z,8.12
2022-11-29T23:41:10.508Z,8.58
2022-11-29T23:43:38.855Z,7.83
2022-11-29T23:46:11.959Z,7.72
2022-11-29T23:48:38.665Z,7.67
2022-11-29T23:51:06.335Z,7.86
2022-11-29T23:53:33.843Z,7.69
2022-11-29T23:56:01.385Z,7.75
2022-11-29T23:58:29.216Z,7.98
